sensor_id;sensor_type;location;lat;lon;timestamp;P1;durP1;ratioP1;P2;durP2;ratioP2
7529;SDS011;3806;52.270;10.544;2023-12-20T00:00:02;4.85;;;2.67;;
7529;SDS011;3806;52.270;10.544;2023-12-20T00:02:28;4.22;;;3.63;;
7529;SDS011;3806;52.270;10.544;2023-12-20T00:04:53;5.43;;;3.40;;
7529;SDS011;3806;52.270;10.544;2023-12-20T00:07:19;3.80;;;3.00;;
7529;SDS011;3806;52.270;10.544;2023-12-20T00:09:44;4.57;;;3.30;;
7529;SDS011;3806;52.270;10.544;2023-12-20T00:12:10;5.10;;;3.42;;
7529;SDS011;3806;52.270;10.544;2023-12-20T00:14:35;5.30;;;3.55;;
7529;SDS011;3806;52.270;10.544;2023-12-20T00:17:01;4.85;;;3.80;;
7529;SDS011;3806;52.270;10.544;2023-12-20T00:19:26;5.68;;;3.42;;
7529;SDS011;3806;52.270;10.544;2023-12-20T00:21:52;4.47;;;2.97;;
7529;SDS011;3806;52.270;10.544;2023-12-20T00:24:17;4.72;;;3.40;;
7529;SDS011;3806;52.270;10.544;2023-12-20T00:26:43;5.72;;;4.20;;
7529;SDS011;3806;52.270;10.544;2023-12-20T00:29:08;4.85;;;3.45;;
7529;SDS011;3806;52.270;10.544;2023-12-20T00:31:34;5.15;;;3.55;;
7529;SDS011;3806;52.270;10.544;2023-12-20T00:33:59;5.38;;;3.25;;
7529;SDS011;3806;52.270;10.544;2023-12-20T00:36:25;5.45;;;3.50;;
7529;SDS011;3806;52.270;10.544;2023-12-20T00:38:50;6.03;;;4.18;;
7529;SDS011;3806;52.270;10.544;2023-12-20T00:41:16;10.10;;;4.90;;
7529;SDS011;3806;52.270;10.544;2023-12-20T00:43:42;6.40;;;3.83;;
7529;SDS011;3806;52.270;10.544;2023-12-20T00:46:07;5.88;;;3.88;;
7529;SDS011;3806;52.270;10.544;2023-12-20T00:48:33;6.70;;;4.15;;
7529;SDS011;3806;52.270;10.544;2023-12-20T00:50:58;7.53;;;4.75;;
7529;SDS011;3806;52.270;10.544;2023-12-20T00:53:24;6.45;;;4.10;;
7529;SDS011;3806;52.270;10.544;2023-12-20T00:55:49;6.78;;;4.35;;
7529;SDS011;3806;52.270;10.544;2023-12-20T00:58:15;6.90;;;3.78;;
7529;SDS011;3806;52.270;10.544;2023-12-20T01:00:40;5.50;;;3.70;;
7529;SDS011;3806;52.270;10.544;2023-12-20T01:03:07;6.47;;;4.72;;
7529;SDS011;3806;52.270;10.544;2023-12-20T01:05:33;7.25;;;4.80;;
7529;SDS011;3806;52.270;10.544;2023-12-20T01:07:58;7.93;;;4.22;;
7529;SDS011;3806;52.270;10.544;2023-12-20T01:10:24;7.82;;;4.22;;
7529;SDS011;3806;52.270;10.544;2023-12-20T01:12:53;8.25;;;4.50;;
7529;SDS011;3806;52.270;10.544;2023-12-20T01:15:18;7.88;;;4.38;;
7529;SDS011;3806;52.270;10.544;2023-12-20T01:17:44;7.28;;;4.22;;
7529;SDS011;3806;52.270;10.544;2023-12-20T01:20:09;11.35;;;4.43;;
7529;SDS011;3806;52.270;10.544;2023-12-20T01:22:35;9.68;;;4.53;;
7529;SDS011;3806;52.270;10.544;2023-12-20T01:25:00;10.32;;;5.53;;
7529;SDS011;3806;52.270;10.544;2023-12-20T01:27:27;8.88;;;4.47;;
7529;SDS011;3806;52.270;10.544;2023-12-20T01:29:52;8.95;;;4.63;;
7529;SDS011;3806;52.270;10.544;2023-12-20T01:32:18;7.45;;;4.70;;
7529;SDS011;3806;52.270;10.544;2023-12-20T01:34:43;7.32;;;4.28;;
7529;SDS011;3806;52.270;10.544;2023-12-20T01:37:09;9.40;;;4.28;;
7529;SDS011;3806;52.270;10.544;2023-12-20T01:39:34;6.85;;;4.80;;
7529;SDS011;3806;52.270;10.544;2023-12-20T01:42:00;8.48;;;4.18;;
7529;SDS011;3806;52.270;10.544;2023-12-20T01:44:25;5.22;;;3.70;;
7529;SDS011;3806;52.270;10.544;2023-12-20T01:46:51;10.48;;;3.83;;
7529;SDS011;3806;52.270;10.544;2023-12-20T01:49:17;6.65;;;3.30;;
7529;SDS011;3806;52.270;10.544;2023-12-20T01:51:42;7.68;;;3.35;;
7529;SDS011;3806;52.270;10.544;2023-12-20T01:54:09;9.70;;;4.60;;
7529;SDS011;3806;52.270;10.544;2023-12-20T01:56:34;6.18;;;2.83;;
7529;SDS011;3806;52.270;10.544;2023-12-20T01:59:00;7.25;;;3.08;;
7529;SDS011;3806;52.270;10.544;2023-12-20T02:01:26;9.32;;;2.88;;
7529;SDS011;3806;52.270;10.544;2023-12-20T02:03:53;4.88;;;3.45;;
7529;SDS011;3806;52.270;10.544;2023-12-20T02:06:19;7.65;;;2.47;;
7529;SDS011;3806;52.270;10.544;2023-12-20T02:08:48;5.97;;;2.38;;
7529;SDS011;3806;52.270;10.544;2023-12-20T02:11:15;5.70;;;2.55;;
7529;SDS011;3806;52.270;10.544;2023-12-20T02:13:40;11.23;;;3.35;;
7529;SDS011;3806;52.270;10.544;2023-12-20T02:16:06;12.93;;;3.15;;
7529;SDS011;3806;52.270;10.544;2023-12-20T02:18:32;6.28;;;3.30;;
7529;SDS011;3806;52.270;10.544;2023-12-20T02:20:58;7.97;;;2.92;;
7529;SDS011;3806;52.270;10.544;2023-12-20T02:23:23;8.75;;;2.35;;
7529;SDS011;3806;52.270;10.544;2023-12-20T02:25:49;3.92;;;2.22;;
7529;SDS011;3806;52.270;10.544;2023-12-20T02:28:14;12.40;;;2.78;;
7529;SDS011;3806;52.270;10.544;2023-12-20T02:30:40;9.88;;;2.70;;
7529;SDS011;3806;52.270;10.544;2023-12-20T02:33:07;5.95;;;2.20;;
7529;SDS011;3806;52.270;10.544;2023-12-20T02:35:35;4.88;;;2.20;;
7529;SDS011;3806;52.270;10.544;2023-12-20T02:38:01;5.95;;;2.15;;
7529;SDS011;3806;52.270;10.544;2023-12-20T02:40:26;5.18;;;2.75;;
7529;SDS011;3806;52.270;10.544;2023-12-20T02:42:51;7.40;;;2.25;;
7529;SDS011;3806;52.270;10.544;2023-12-20T02:45:17;6.70;;;2.22;;
7529;SDS011;3806;52.270;10.544;2023-12-20T02:47:42;3.20;;;1.70;;
7529;SDS011;3806;52.270;10.544;2023-12-20T02:50:08;2.78;;;1.58;;
7529;SDS011;3806;52.270;10.544;2023-12-20T02:52:33;7.45;;;1.98;;
7529;SDS011;3806;52.270;10.544;2023-12-20T02:54:59;4.55;;;1.90;;
7529;SDS011;3806;52.270;10.544;2023-12-20T02:57:24;6.90;;;2.30;;
7529;SDS011;3806;52.270;10.544;2023-12-20T02:59:50;6.10;;;1.77;;
7529;SDS011;3806;52.270;10.544;2023-12-20T03:02:15;4.53;;;1.27;;
7529;SDS011;3806;52.270;10.544;2023-12-20T03:04:41;3.75;;;1.92;;
7529;SDS011;3806;52.270;10.544;2023-12-20T03:07:06;4.30;;;1.33;;
7529;SDS011;3806;52.270;10.544;2023-12-20T03:09:31;2.10;;;1.27;;
7529;SDS011;3806;52.270;10.544;2023-12-20T03:11:57;5.68;;;1.23;;
7529;SDS011;3806;52.270;10.544;2023-12-20T03:14:22;2.33;;;1.20;;
7529;SDS011;3806;52.270;10.544;2023-12-20T03:16:51;4.10;;;1.52;;
7529;SDS011;3806;52.270;10.544;2023-12-20T03:19:17;2.85;;;1.60;;
7529;SDS011;3806;52.270;10.544;2023-12-20T03:21:43;7.10;;;1.65;;
7529;SDS011;3806;52.270;10.544;2023-12-20T03:24:09;7.22;;;1.65;;
7529;SDS011;3806;52.270;10.544;2023-12-20T03:26:34;6.55;;;2.47;;
7529;SDS011;3806;52.270;10.544;2023-12-20T03:29:00;2.30;;;1.30;;
7529;SDS011;3806;52.270;10.544;2023-12-20T03:31:25;5.65;;;1.13;;
7529;SDS011;3806;52.270;10.544;2023-12-20T03:33:51;2.50;;;1.15;;
7529;SDS011;3806;52.270;10.544;2023-12-20T03:36:18;2.72;;;0.98;;
7529;SDS011;3806;52.270;10.544;2023-12-20T03:38:44;3.85;;;1.40;;
7529;SDS011;3806;52.270;10.544;2023-12-20T03:41:09;3.55;;;1.00;;
7529;SDS011;3806;52.270;10.544;2023-12-20T03:43:35;3.25;;;1.20;;
7529;SDS011;3806;52.270;10.544;2023-12-20T03:46:00;6.22;;;2.13;;
7529;SDS011;3806;52.270;10.544;2023-12-20T03:48:28;5.80;;;1.63;;
7529;SDS011;3806;52.270;10.544;2023-12-20T03:50:54;5.43;;;1.10;;
7529;SDS011;3806;52.270;10.544;2023-12-20T03:53:20;5.63;;;1.48;;
7529;SDS011;3806;52.270;10.544;2023-12-20T03:55:45;8.43;;;1.10;;
7529;SDS011;3806;52.270;10.544;2023-12-20T03:58:11;5.03;;;1.20;;
7529;SDS011;3806;52.270;10.544;2023-12-20T04:00:36;4.20;;;1.27;;
7529;SDS011;3806;52.270;10.544;2023-12-20T04:03:02;6.18;;;1.15;;
7529;SDS011;3806;52.270;10.544;2023-12-20T04:05:27;5.22;;;1.30;;
7529;SDS011;3806;52.270;10.544;2023-12-20T04:07:53;6.45;;;0.75;;
7529;SDS011;3806;52.270;10.544;2023-12-20T04:10:18;3.85;;;1.00;;
7529;SDS011;3806;52.270;10.544;2023-12-20T04:12:44;5.90;;;0.95;;
7529;SDS011;3806;52.270;10.544;2023-12-20T04:15:09;7.00;;;1.80;;
7529;SDS011;3806;52.270;10.544;2023-12-20T04:17:36;8.82;;;1.02;;
7529;SDS011;3806;52.270;10.544;2023-12-20T04:20:02;3.08;;;0.75;;
7529;SDS011;3806;52.270;10.544;2023-12-20T04:22:28;3.03;;;1.08;;
7529;SDS011;3806;52.270;10.544;2023-12-20T04:24:53;0.80;;;0.73;;
7529;SDS011;3806;52.270;10.544;2023-12-20T04:27:19;1.38;;;0.73;;
7529;SDS011;3806;52.270;10.544;2023-12-20T04:29:44;1.50;;;0.80;;
7529;SDS011;3806;52.270;10.544;2023-12-20T04:32:10;6.18;;;1.10;;
7529;SDS011;3806;52.270;10.544;2023-12-20T04:34:35;3.45;;;0.90;;
7529;SDS011;3806;52.270;10.544;2023-12-20T04:37:01;6.82;;;1.25;;
7529;SDS011;3806;52.270;10.544;2023-12-20T04:39:27;7.88;;;1.60;;
7529;SDS011;3806;52.270;10.544;2023-12-20T04:41:52;2.45;;;1.50;;
7529;SDS011;3806;52.270;10.544;2023-12-20T04:44:18;3.20;;;1.35;;
7529;SDS011;3806;52.270;10.544;2023-12-20T04:46:43;3.05;;;1.98;;
7529;SDS011;3806;52.270;10.544;2023-12-20T04:49:09;4.22;;;1.15;;
7529;SDS011;3806;52.270;10.544;2023-12-20T04:51:35;2.55;;;1.35;;
7529;SDS011;3806;52.270;10.544;2023-12-20T04:54:00;3.83;;;0.80;;
7529;SDS011;3806;52.270;10.544;2023-12-20T04:56:26;3.47;;;1.10;;
7529;SDS011;3806;52.270;10.544;2023-12-20T04:58:52;5.65;;;1.10;;
7529;SDS011;3806;52.270;10.544;2023-12-20T05:01:18;3.97;;;0.95;;
7529;SDS011;3806;52.270;10.544;2023-12-20T05:03:43;7.05;;;1.05;;
7529;SDS011;3806;52.270;10.544;2023-12-20T05:06:09;2.40;;;1.05;;
7529;SDS011;3806;52.270;10.544;2023-12-20T05:08:35;4.50;;;0.90;;
7529;SDS011;3806;52.270;10.544;2023-12-20T05:11:00;5.45;;;0.82;;
7529;SDS011;3806;52.270;10.544;2023-12-20T05:13:26;6.53;;;1.00;;
7529;SDS011;3806;52.270;10.544;2023-12-20T05:15:51;4.18;;;1.15;;
7529;SDS011;3806;52.270;10.544;2023-12-20T05:18:17;2.83;;;0.45;;
7529;SDS011;3806;52.270;10.544;2023-12-20T05:20:42;7.13;;;1.63;;
7529;SDS011;3806;52.270;10.544;2023-12-20T05:23:08;2.88;;;1.20;;
7529;SDS011;3806;52.270;10.544;2023-12-20T05:25:33;6.18;;;0.85;;
7529;SDS011;3806;52.270;10.544;2023-12-20T05:27:59;1.70;;;0.77;;
7529;SDS011;3806;52.270;10.544;2023-12-20T05:30:24;2.35;;;0.82;;
7529;SDS011;3806;52.270;10.544;2023-12-20T05:32:50;6.13;;;1.20;;
7529;SDS011;3806;52.270;10.544;2023-12-20T05:35:16;9.77;;;1.17;;
7529;SDS011;3806;52.270;10.544;2023-12-20T05:37:42;4.22;;;1.33;;
7529;SDS011;3806;52.270;10.544;2023-12-20T05:40:07;4.32;;;1.13;;
7529;SDS011;3806;52.270;10.544;2023-12-20T05:42:35;3.42;;;0.77;;
7529;SDS011;3806;52.270;10.544;2023-12-20T05:45:01;5.93;;;1.40;;
7529;SDS011;3806;52.270;10.544;2023-12-20T05:47:26;7.93;;;3.38;;
7529;SDS011;3806;52.270;10.544;2023-12-20T05:49:52;2.50;;;1.02;;
7529;SDS011;3806;52.270;10.544;2023-12-20T05:52:17;4.60;;;1.10;;
7529;SDS011;3806;52.270;10.544;2023-12-20T05:54:43;2.75;;;1.27;;
7529;SDS011;3806;52.270;10.544;2023-12-20T05:57:08;4.28;;;1.52;;
7529;SDS011;3806;52.270;10.544;2023-12-20T05:59:34;5.70;;;1.35;;
7529;SDS011;3806;52.270;10.544;2023-12-20T06:01:59;6.07;;;1.40;;
7529;SDS011;3806;52.270;10.544;2023-12-20T06:04:25;2.38;;;0.93;;
7529;SDS011;3806;52.270;10.544;2023-12-20T06:06:50;4.53;;;1.17;;
7529;SDS011;3806;52.270;10.544;2023-12-20T06:09:16;7.90;;;1.65;;
7529;SDS011;3806;52.270;10.544;2023-12-20T06:11:42;3.88;;;1.40;;
7529;SDS011;3806;52.270;10.544;2023-12-20T06:14:07;9.15;;;1.33;;
7529;SDS011;3806;52.270;10.544;2023-12-20T06:16:33;3.00;;;1.23;;
7529;SDS011;3806;52.270;10.544;2023-12-20T06:18:58;4.40;;;1.33;;
7529;SDS011;3806;52.270;10.544;2023-12-20T06:21:24;5.63;;;1.40;;
7529;SDS011;3806;52.270;10.544;2023-12-20T06:23:49;3.38;;;1.20;;
7529;SDS011;3806;52.270;10.544;2023-12-20T06:26:15;5.20;;;1.50;;
7529;SDS011;3806;52.270;10.544;2023-12-20T06:28:40;9.38;;;2.30;;
7529;SDS011;3806;52.270;10.544;2023-12-20T06:31:06;5.65;;;1.85;;
7529;SDS011;3806;52.270;10.544;2023-12-20T06:33:31;3.83;;;1.90;;
7529;SDS011;3806;52.270;10.544;2023-12-20T06:35:57;7.47;;;1.90;;
7529;SDS011;3806;52.270;10.544;2023-12-20T06:38:22;5.05;;;2.70;;
7529;SDS011;3806;52.270;10.544;2023-12-20T06:40:48;3.58;;;1.80;;
7529;SDS011;3806;52.270;10.544;2023-12-20T06:43:14;5.40;;;1.80;;
7529;SDS011;3806;52.270;10.544;2023-12-20T06:45:39;4.93;;;1.75;;
7529;SDS011;3806;52.270;10.544;2023-12-20T06:48:05;10.60;;;1.80;;
7529;SDS011;3806;52.270;10.544;2023-12-20T06:50:31;5.57;;;1.52;;
7529;SDS011;3806;52.270;10.544;2023-12-20T06:52:57;5.65;;;2.53;;
7529;SDS011;3806;52.270;10.544;2023-12-20T06:55:22;6.07;;;2.30;;
7529;SDS011;3806;52.270;10.544;2023-12-20T06:57:48;8.25;;;1.55;;
7529;SDS011;3806;52.270;10.544;2023-12-20T07:00:14;6.20;;;1.80;;
7529;SDS011;3806;52.270;10.544;2023-12-20T07:02:40;3.50;;;1.42;;
7529;SDS011;3806;52.270;10.544;2023-12-20T07:05:05;4.47;;;1.90;;
7529;SDS011;3806;52.270;10.544;2023-12-20T07:07:31;5.18;;;1.63;;
7529;SDS011;3806;52.270;10.544;2023-12-20T07:09:56;5.82;;;2.53;;
7529;SDS011;3806;52.270;10.544;2023-12-20T07:12:22;11.35;;;1.98;;
7529;SDS011;3806;52.270;10.544;2023-12-20T07:14:47;9.98;;;2.28;;
7529;SDS011;3806;52.270;10.544;2023-12-20T07:17:13;5.00;;;1.65;;
7529;SDS011;3806;52.270;10.544;2023-12-20T07:19:40;5.90;;;1.70;;
7529;SDS011;3806;52.270;10.544;2023-12-20T07:22:06;6.15;;;1.58;;
7529;SDS011;3806;52.270;10.544;2023-12-20T07:24:32;6.75;;;2.17;;
7529;SDS011;3806;52.270;10.544;2023-12-20T07:26:59;6.15;;;2.03;;
7529;SDS011;3806;52.270;10.544;2023-12-20T07:29:25;7.97;;;2.28;;
7529;SDS011;3806;52.270;10.544;2023-12-20T07:31:51;5.70;;;2.03;;
7529;SDS011;3806;52.270;10.544;2023-12-20T07:34:18;10.52;;;2.40;;
7529;SDS011;3806;52.270;10.544;2023-12-20T07:36:44;3.38;;;1.73;;
7529;SDS011;3806;52.270;10.544;2023-12-20T07:39:10;6.40;;;1.90;;
7529;SDS011;3806;52.270;10.544;2023-12-20T07:41:35;9.30;;;2.00;;
7529;SDS011;3806;52.270;10.544;2023-12-20T07:44:01;6.88;;;2.22;;
7529;SDS011;3806;52.270;10.544;2023-12-20T07:46:26;6.95;;;1.40;;
7529;SDS011;3806;52.270;10.544;2023-12-20T07:48:51;8.60;;;2.13;;
7529;SDS011;3806;52.270;10.544;2023-12-20T07:51:17;8.15;;;2.20;;
7529;SDS011;3806;52.270;10.544;2023-12-20T07:53:43;10.18;;;2.53;;
7529;SDS011;3806;52.270;10.544;2023-12-20T07:56:18;8.02;;;2.55;;
7529;SDS011;3806;52.270;10.544;2023-12-20T08:01:10;7.45;;;1.83;;
7529;SDS011;3806;52.270;10.544;2023-12-20T08:03:36;7.13;;;1.92;;
7529;SDS011;3806;52.270;10.544;2023-12-20T08:06:02;6.10;;;1.95;;
7529;SDS011;3806;52.270;10.544;2023-12-20T08:08:28;7.28;;;1.95;;
7529;SDS011;3806;52.270;10.544;2023-12-20T08:10:54;5.72;;;2.35;;
7529;SDS011;3806;52.270;10.544;2023-12-20T08:13:19;4.75;;;1.67;;
7529;SDS011;3806;52.270;10.544;2023-12-20T08:15:50;8.13;;;1.92;;
7529;SDS011;3806;52.270;10.544;2023-12-20T08:18:15;10.02;;;2.22;;
7529;SDS011;3806;52.270;10.544;2023-12-20T08:20:41;8.10;;;1.85;;
7529;SDS011;3806;52.270;10.544;2023-12-20T08:23:06;7.28;;;1.98;;
7529;SDS011;3806;52.270;10.544;2023-12-20T08:25:32;5.47;;;1.88;;
7529;SDS011;3806;52.270;10.544;2023-12-20T08:27:57;7.60;;;1.98;;
7529;SDS011;3806;52.270;10.544;2023-12-20T08:30:22;11.00;;;2.10;;
7529;SDS011;3806;52.270;10.544;2023-12-20T08:32:48;6.55;;;1.83;;
7529;SDS011;3806;52.270;10.544;2023-12-20T08:35:14;8.60;;;2.60;;
7529;SDS011;3806;52.270;10.544;2023-12-20T08:37:39;6.57;;;1.98;;
7529;SDS011;3806;52.270;10.544;2023-12-20T08:40:05;8.75;;;2.55;;
7529;SDS011;3806;52.270;10.544;2023-12-20T08:42:31;11.32;;;2.78;;
7529;SDS011;3806;52.270;10.544;2023-12-20T08:45:00;5.72;;;2.50;;
7529;SDS011;3806;52.270;10.544;2023-12-20T08:47:25;12.43;;;2.53;;
7529;SDS011;3806;52.270;10.544;2023-12-20T08:49:51;5.38;;;2.50;;
7529;SDS011;3806;52.270;10.544;2023-12-20T08:52:24;6.53;;;2.10;;
7529;SDS011;3806;52.270;10.544;2023-12-20T08:54:52;4.90;;;2.20;;
7529;SDS011;3806;52.270;10.544;2023-12-20T08:57:22;13.00;;;2.78;;
7529;SDS011;3806;52.270;10.544;2023-12-20T08:59:48;5.65;;;1.90;;
7529;SDS011;3806;52.270;10.544;2023-12-20T09:02:16;8.40;;;2.75;;
7529;SDS011;3806;52.270;10.544;2023-12-20T09:04:42;9.68;;;2.33;;
7529;SDS011;3806;52.270;10.544;2023-12-20T09:07:20;10.32;;;2.70;;
7529;SDS011;3806;52.270;10.544;2023-12-20T09:09:54;9.52;;;2.05;;
7529;SDS011;3806;52.270;10.544;2023-12-20T09:12:20;6.72;;;2.05;;
7529;SDS011;3806;52.270;10.544;2023-12-20T09:14:46;7.65;;;2.20;;
7529;SDS011;3806;52.270;10.544;2023-12-20T09:17:12;7.40;;;2.15;;
7529;SDS011;3806;52.270;10.544;2023-12-20T09:19:38;17.83;;;4.93;;
7529;SDS011;3806;52.270;10.544;2023-12-20T09:22:04;9.23;;;2.53;;
7529;SDS011;3806;52.270;10.544;2023-12-20T09:24:31;8.88;;;2.85;;
7529;SDS011;3806;52.270;10.544;2023-12-20T09:27:07;11.70;;;3.00;;
7529;SDS011;3806;52.270;10.544;2023-12-20T09:29:32;4.63;;;2.05;;
7529;SDS011;3806;52.270;10.544;2023-12-20T09:31:58;8.80;;;2.40;;
7529;SDS011;3806;52.270;10.544;2023-12-20T09:34:24;11.27;;;4.25;;
7529;SDS011;3806;52.270;10.544;2023-12-20T09:36:51;8.95;;;3.25;;
7529;SDS011;3806;52.270;10.544;2023-12-20T09:39:17;6.10;;;2.17;;
7529;SDS011;3806;52.270;10.544;2023-12-20T09:42:05;7.30;;;2.22;;
7529;SDS011;3806;52.270;10.544;2023-12-20T09:44:32;4.15;;;2.05;;
7529;SDS011;3806;52.270;10.544;2023-12-20T09:46:59;6.25;;;2.33;;
7529;SDS011;3806;52.270;10.544;2023-12-20T09:49:28;11.55;;;2.22;;
7529;SDS011;3806;52.270;10.544;2023-12-20T09:51:55;5.38;;;2.10;;
7529;SDS011;3806;52.270;10.544;2023-12-20T09:54:21;5.70;;;1.52;;
7529;SDS011;3806;52.270;10.544;2023-12-20T09:56:48;6.60;;;2.47;;
7529;SDS011;3806;52.270;10.544;2023-12-20T09:59:14;9.50;;;2.03;;
7529;SDS011;3806;52.270;10.544;2023-12-20T10:01:40;7.53;;;1.80;;
7529;SDS011;3806;52.270;10.544;2023-12-20T10:04:07;12.18;;;2.08;;
7529;SDS011;3806;52.270;10.544;2023-12-20T10:06:37;3.80;;;1.70;;
7529;SDS011;3806;52.270;10.544;2023-12-20T10:09:09;7.25;;;1.90;;
7529;SDS011;3806;52.270;10.544;2023-12-20T10:11:36;10.93;;;1.70;;
7529;SDS011;3806;52.270;10.544;2023-12-20T10:14:02;3.63;;;1.50;;
7529;SDS011;3806;52.270;10.544;2023-12-20T10:16:28;6.05;;;1.90;;
7529;SDS011;3806;52.270;10.544;2023-12-20T10:18:54;5.10;;;1.92;;
7529;SDS011;3806;52.270;10.544;2023-12-20T10:21:20;7.03;;;1.92;;
7529;SDS011;3806;52.270;10.544;2023-12-20T10:23:47;6.88;;;1.95;;
7529;SDS011;3806;52.270;10.544;2023-12-20T10:26:20;5.88;;;1.50;;
7529;SDS011;3806;52.270;10.544;2023-12-20T10:28:50;7.18;;;2.85;;
7529;SDS011;3806;52.270;10.544;2023-12-20T10:31:26;6.40;;;2.85;;
7529;SDS011;3806;52.270;10.544;2023-12-20T10:33:53;6.55;;;1.58;;
7529;SDS011;3806;52.270;10.544;2023-12-20T10:36:18;7.43;;;1.77;;
7529;SDS011;3806;52.270;10.544;2023-12-20T10:38:44;6.90;;;1.77;;
7529;SDS011;3806;52.270;10.544;2023-12-20T10:41:11;3.80;;;2.00;;
7529;SDS011;3806;52.270;10.544;2023-12-20T10:43:38;7.00;;;2.05;;
7529;SDS011;3806;52.270;10.544;2023-12-20T10:46:05;5.72;;;1.42;;
7529;SDS011;3806;52.270;10.544;2023-12-20T10:48:31;3.47;;;2.03;;
7529;SDS011;3806;52.270;10.544;2023-12-20T10:50:57;6.75;;;1.60;;
7529;SDS011;3806;52.270;10.544;2023-12-20T10:53:24;8.35;;;2.47;;
7529;SDS011;3806;52.270;10.544;2023-12-20T10:55:50;5.55;;;1.73;;
7529;SDS011;3806;52.270;10.544;2023-12-20T10:58:20;6.10;;;1.75;;
7529;SDS011;3806;52.270;10.544;2023-12-20T11:00:47;2.40;;;1.50;;
7529;SDS011;3806;52.270;10.544;2023-12-20T11:03:16;6.75;;;2.05;;
7529;SDS011;3806;52.270;10.544;2023-12-20T11:05:44;4.78;;;1.73;;
7529;SDS011;3806;52.270;10.544;2023-12-20T11:08:20;6.40;;;2.13;;
7529;SDS011;3806;52.270;10.544;2023-12-20T11:10:59;6.28;;;1.90;;
7529;SDS011;3806;52.270;10.544;2023-12-20T11:13:28;3.72;;;1.65;;
7529;SDS011;3806;52.270;10.544;2023-12-20T11:15:57;6.45;;;2.15;;
7529;SDS011;3806;52.270;10.544;2023-12-20T11:18:30;9.30;;;2.42;;
7529;SDS011;3806;52.270;10.544;2023-12-20T11:21:00;5.70;;;2.13;;
7529;SDS011;3806;52.270;10.544;2023-12-20T11:23:27;5.60;;;2.03;;
7529;SDS011;3806;52.270;10.544;2023-12-20T11:25:54;5.97;;;2.17;;
7529;SDS011;3806;52.270;10.544;2023-12-20T11:28:24;10.13;;;2.20;;
7529;SDS011;3806;52.270;10.544;2023-12-20T11:30:50;7.18;;;3.10;;
7529;SDS011;3806;52.270;10.544;2023-12-20T11:33:23;6.22;;;2.25;;
7529;SDS011;3806;52.270;10.544;2023-12-20T11:36:13;4.53;;;1.75;;
7529;SDS011;3806;52.270;10.544;2023-12-20T11:38:49;5.35;;;2.25;;
7529;SDS011;3806;52.270;10.544;2023-12-20T11:41:22;5.47;;;2.10;;
7529;SDS011;3806;52.270;10.544;2023-12-20T11:43:49;6.65;;;2.08;;
7529;SDS011;3806;52.270;10.544;2023-12-20T11:46:18;7.70;;;2.65;;
7529;SDS011;3806;52.270;10.544;2023-12-20T11:48:44;3.65;;;1.75;;
7529;SDS011;3806;52.270;10.544;2023-12-20T11:51:10;3.92;;;1.92;;
7529;SDS011;3806;52.270;10.544;2023-12-20T11:53:37;5.65;;;2.60;;
7529;SDS011;3806;52.270;10.544;2023-12-20T11:56:04;5.80;;;2.30;;
7529;SDS011;3806;52.270;10.544;2023-12-20T11:58:33;3.72;;;2.53;;
7529;SDS011;3806;52.270;10.544;2023-12-20T12:00:59;3.88;;;2.15;;
7529;SDS011;3806;52.270;10.544;2023-12-20T12:03:24;3.65;;;2.10;;
7529;SDS011;3806;52.270;10.544;2023-12-20T12:05:50;9.57;;;2.20;;
7529;SDS011;3806;52.270;10.544;2023-12-20T12:08:19;8.88;;;2.30;;
7529;SDS011;3806;52.270;10.544;2023-12-20T12:10:44;5.70;;;2.20;;
7529;SDS011;3806;52.270;10.544;2023-12-20T12:13:10;9.30;;;2.55;;
7529;SDS011;3806;52.270;10.544;2023-12-20T12:15:36;5.28;;;2.60;;
7529;SDS011;3806;52.270;10.544;2023-12-20T12:18:02;5.88;;;2.40;;
7529;SDS011;3806;52.270;10.544;2023-12-20T12:20:28;6.07;;;1.90;;
7529;SDS011;3806;52.270;10.544;2023-12-20T12:23:01;6.30;;;1.85;;
7529;SDS011;3806;52.270;10.544;2023-12-20T12:25:31;3.42;;;1.83;;
7529;SDS011;3806;52.270;10.544;2023-12-20T12:27:57;2.45;;;1.17;;
7529;SDS011;3806;52.270;10.544;2023-12-20T12:30:23;4.85;;;2.28;;
7529;SDS011;3806;52.270;10.544;2023-12-20T12:32:50;3.72;;;1.33;;
7529;SDS011;3806;52.270;10.544;2023-12-20T12:35:20;5.72;;;1.83;;
7529;SDS011;3806;52.270;10.544;2023-12-20T12:37:46;4.63;;;2.00;;
7529;SDS011;3806;52.270;10.544;2023-12-20T12:40:12;6.15;;;1.65;;
7529;SDS011;3806;52.270;10.544;2023-12-20T12:42:39;6.38;;;2.28;;
7529;SDS011;3806;52.270;10.544;2023-12-20T12:45:06;6.40;;;1.70;;
7529;SDS011;3806;52.270;10.544;2023-12-20T12:47:32;3.97;;;1.58;;
7529;SDS011;3806;52.270;10.544;2023-12-20T12:49:58;7.13;;;2.03;;
7529;SDS011;3806;52.270;10.544;2023-12-20T12:52:24;9.93;;;1.92;;
7529;SDS011;3806;52.270;10.544;2023-12-20T12:54:51;4.32;;;1.35;;
7529;SDS011;3806;52.270;10.544;2023-12-20T12:57:17;2.28;;;0.90;;
7529;SDS011;3806;52.270;10.544;2023-12-20T12:59:43;2.92;;;0.80;;
7529;SDS011;3806;52.270;10.544;2023-12-20T13:02:10;4.20;;;0.80;;
7529;SDS011;3806;52.270;10.544;2023-12-20T13:04:36;0.77;;;0.60;;
7529;SDS011;3806;52.270;10.544;2023-12-20T13:07:02;0.90;;;0.63;;
7529;SDS011;3806;52.270;10.544;2023-12-20T13:09:27;3.97;;;1.23;;
7529;SDS011;3806;52.270;10.544;2023-12-20T13:11:53;2.38;;;0.77;;
7529;SDS011;3806;52.270;10.544;2023-12-20T13:14:18;2.60;;;0.70;;
7529;SDS011;3806;52.270;10.544;2023-12-20T13:16:44;6.65;;;1.30;;
7529;SDS011;3806;52.270;10.544;2023-12-20T13:19:10;5.18;;;0.63;;
7529;SDS011;3806;52.270;10.544;2023-12-20T13:21:36;1.80;;;1.20;;
7529;SDS011;3806;52.270;10.544;2023-12-20T13:24:01;2.35;;;0.68;;
7529;SDS011;3806;52.270;10.544;2023-12-20T13:26:28;1.90;;;0.55;;
7529;SDS011;3806;52.270;10.544;2023-12-20T13:28:54;0.98;;;0.60;;
7529;SDS011;3806;52.270;10.544;2023-12-20T13:31:19;2.78;;;0.75;;
7529;SDS011;3806;52.270;10.544;2023-12-20T13:33:45;2.67;;;0.57;;
7529;SDS011;3806;52.270;10.544;2023-12-20T13:36:11;1.85;;;0.38;;
7529;SDS011;3806;52.270;10.544;2023-12-20T13:38:37;1.23;;;0.68;;
7529;SDS011;3806;52.270;10.544;2023-12-20T13:41:02;7.57;;;0.93;;
7529;SDS011;3806;52.270;10.544;2023-12-20T13:43:28;1.50;;;0.75;;
7529;SDS011;3806;52.270;10.544;2023-12-20T13:45:55;3.80;;;1.20;;
7529;SDS011;3806;52.270;10.544;2023-12-20T13:48:21;2.97;;;0.75;;
7529;SDS011;3806;52.270;10.544;2023-12-20T13:50:48;1.88;;;0.60;;
7529;SDS011;3806;52.270;10.544;2023-12-20T13:53:14;1.88;;;0.82;;
7529;SDS011;3806;52.270;10.544;2023-12-20T13:55:40;2.90;;;0.93;;
7529;SDS011;3806;52.270;10.544;2023-12-20T13:58:06;4.95;;;0.88;;
7529;SDS011;3806;52.270;10.544;2023-12-20T14:00:31;2.75;;;1.08;;
7529;SDS011;3806;52.270;10.544;2023-12-20T14:02:57;3.13;;;0.68;;
7529;SDS011;3806;52.270;10.544;2023-12-20T14:05:23;2.78;;;1.05;;
7529;SDS011;3806;52.270;10.544;2023-12-20T14:07:49;2.13;;;0.85;;
7529;SDS011;3806;52.270;10.544;2023-12-20T14:10:15;1.98;;;0.73;;
7529;SDS011;3806;52.270;10.544;2023-12-20T14:12:40;1.20;;;0.70;;
7529;SDS011;3806;52.270;10.544;2023-12-20T14:15:06;2.40;;;1.02;;
7529;SDS011;3806;52.270;10.544;2023-12-20T14:17:35;1.77;;;0.63;;
7529;SDS011;3806;52.270;10.544;2023-12-20T14:20:02;1.50;;;0.50;;
7529;SDS011;3806;52.270;10.544;2023-12-20T14:22:28;2.33;;;0.63;;
7529;SDS011;3806;52.270;10.544;2023-12-20T14:24:54;3.10;;;0.80;;
7529;SDS011;3806;52.270;10.544;2023-12-20T14:27:19;0.45;;;0.45;;
7529;SDS011;3806;52.270;10.544;2023-12-20T14:29:48;1.88;;;0.75;;
7529;SDS011;3806;52.270;10.544;2023-12-20T14:32:14;2.25;;;0.63;;
7529;SDS011;3806;52.270;10.544;2023-12-20T14:34:40;1.42;;;0.50;;
7529;SDS011;3806;52.270;10.544;2023-12-20T14:37:05;0.85;;;0.50;;
7529;SDS011;3806;52.270;10.544;2023-12-20T14:39:31;3.03;;;1.00;;
7529;SDS011;3806;52.270;10.544;2023-12-20T14:41:56;1.75;;;0.70;;
7529;SDS011;3806;52.270;10.544;2023-12-20T14:44:22;1.83;;;1.05;;
7529;SDS011;3806;52.270;10.544;2023-12-20T14:46:48;5.40;;;0.75;;
7529;SDS011;3806;52.270;10.544;2023-12-20T14:49:13;1.75;;;0.60;;
7529;SDS011;3806;52.270;10.544;2023-12-20T14:51:39;3.75;;;0.77;;
7529;SDS011;3806;52.270;10.544;2023-12-20T14:54:05;2.85;;;0.93;;
7529;SDS011;3806;52.270;10.544;2023-12-20T14:56:35;1.08;;;0.63;;